sensor_id;sensor_type;location;lat;lon;timestamp;P1;durP1;ratioP1;P2;durP2;ratioP2
71955;SDS011;59829;50.562;6.258;2022-12-24T00:06:49;6.63;;;1.30;;
71955;SDS011;59829;50.562;6.258;2022-12-24T00:16:50;5.55;;;1.30;;
71955;SDS011;59829;50.562;6.258;2022-12-24T00:26:50;4.63;;;1.27;;
71955;SDS011;59829;50.562;6.258;2022-12-24T00:36:50;8.65;;;1.70;;
71955;SDS011;59829;50.562;6.258;2022-12-24T00:46:51;5.57;;;1.08;;
71955;SDS011;59829;50.562;6.258;2022-12-24T00:56:51;6.95;;;1.20;;
71955;SDS011;59829;50.562;6.258;2022-12-24T01:06:52;7.13;;;1.35;;
71955;SDS011;59829;50.562;6.258;2022-12-24T01:16:52;5.82;;;1.20;;
71955;SDS011;59829;50.562;6.258;2022-12-24T01:26:52;6.40;;;1.48;;
71955;SDS011;59829;50.562;6.258;2022-12-24T01:36:53;5.28;;;1.17;;
71955;SDS011;59829;50.562;6.258;2022-12-24T01:46:55;5.07;;;1.30;;
71955;SDS011;59829;50.562;6.258;2022-12-24T01:57:09;5.70;;;1.50;;
71955;SDS011;59829;50.562;6.258;2022-12-24T02:07:16;5.80;;;1.58;;
71955;SDS011;59829;50.562;6.258;2022-12-24T02:17:30;5.77;;;1.60;;
71955;SDS011;59829;50.562;6.258;2022-12-24T02:27:55;6.15;;;1.70;;
71955;SDS011;59829;50.562;6.258;2022-12-24T02:38:02;9.95;;;1.40;;
71955;SDS011;59829;50.562;6.258;2022-12-24T02:48:11;7.55;;;1.85;;
71955;SDS011;59829;50.562;6.258;2022-12-24T03:08:50;8.83;;;1.63;;
71955;SDS011;59829;50.562;6.258;2022-12-24T03:18:57;11.50;;;2.22;;
71955;SDS011;59829;50.562;6.258;2022-12-24T03:28:59;8.00;;;2.20;;
71955;SDS011;59829;50.562;6.258;2022-12-24T03:39:05;7.47;;;1.85;;
71955;SDS011;59829;50.562;6.258;2022-12-24T03:49:06;5.13;;;1.50;;
71955;SDS011;59829;50.562;6.258;2022-12-24T03:59:06;6.50;;;1.65;;
71955;SDS011;59829;50.562;6.258;2022-12-24T04:09:07;5.00;;;1.13;;
71955;SDS011;59829;50.562;6.258;2022-12-24T04:19:07;2.38;;;0.77;;
71955;SDS011;59829;50.562;6.258;2022-12-24T04:29:07;1.23;;;0.47;;
71955;SDS011;59829;50.562;6.258;2022-12-24T04:39:08;5.88;;;1.00;;
71955;SDS011;59829;50.562;6.258;2022-12-24T04:49:09;3.50;;;1.25;;
71955;SDS011;59829;50.562;6.258;2022-12-24T04:59:09;5.80;;;1.13;;
71955;SDS011;59829;50.562;6.258;2022-12-24T05:09:10;5.97;;;1.30;;
71955;SDS011;59829;50.562;6.258;2022-12-24T05:19:10;7.93;;;1.65;;
71955;SDS011;59829;50.562;6.258;2022-12-24T05:29:10;8.25;;;1.60;;
71955;SDS011;59829;50.562;6.258;2022-12-24T05:39:15;5.00;;;1.23;;
71955;SDS011;59829;50.562;6.258;2022-12-24T05:49:16;8.38;;;1.80;;
71955;SDS011;59829;50.562;6.258;2022-12-24T05:59:16;7.53;;;1.88;;
71955;SDS011;59829;50.562;6.258;2022-12-24T06:09:17;7.10;;;1.85;;
71955;SDS011;59829;50.562;6.258;2022-12-24T06:19:17;7.60;;;1.50;;
71955;SDS011;59829;50.562;6.258;2022-12-24T06:29:17;5.47;;;1.70;;
71955;SDS011;59829;50.562;6.258;2022-12-24T06:39:18;7.63;;;1.80;;
71955;SDS011;59829;50.562;6.258;2022-12-24T06:49:18;6.97;;;2.28;;
71955;SDS011;59829;50.562;6.258;2022-12-24T06:59:18;8.13;;;2.17;;
71955;SDS011;59829;50.562;6.258;2022-12-24T07:09:18;9.27;;;1.80;;
71955;SDS011;59829;50.562;6.258;2022-12-24T07:19:19;5.30;;;1.30;;
71955;SDS011;59829;50.562;6.258;2022-12-24T07:29:19;3.90;;;1.20;;
71955;SDS011;59829;50.562;6.258;2022-12-24T07:39:19;5.72;;;1.13;;
71955;SDS011;59829;50.562;6.258;2022-12-24T07:49:20;6.65;;;1.75;;
71955;SDS011;59829;50.562;6.258;2022-12-24T07:59:20;7.93;;;1.85;;
71955;SDS011;59829;50.562;6.258;2022-12-24T08:09:21;7.18;;;1.70;;
71955;SDS011;59829;50.562;6.258;2022-12-24T08:19:21;7.53;;;2.33;;
71955;SDS011;59829;50.562;6.258;2022-12-24T08:29:21;7.80;;;1.80;;
71955;SDS011;59829;50.562;6.258;2022-12-24T08:39:22;7.07;;;1.90;;
71955;SDS011;59829;50.562;6.258;2022-12-24T08:49:22;6.75;;;1.95;;
71955;SDS011;59829;50.562;6.258;2022-12-24T08:59:22;12.63;;;2.80;;
71955;SDS011;59829;50.562;6.258;2022-12-24T09:09:23;7.90;;;2.30;;
71955;SDS011;59829;50.562;6.258;2022-12-24T09:19:23;7.30;;;2.22;;
71955;SDS011;59829;50.562;6.258;2022-12-24T09:29:24;7.50;;;1.70;;
71955;SDS011;59829;50.562;6.258;2022-12-24T09:39:24;6.72;;;1.60;;
71955;SDS011;59829;50.562;6.258;2022-12-24T09:49:25;4.05;;;1.50;;
71955;SDS011;59829;50.562;6.258;2022-12-24T09:59:43;5.05;;;1.63;;
71955;SDS011;59829;50.562;6.258;2022-12-24T10:30:34;6.78;;;1.88;;
71955;SDS011;59829;50.562;6.258;2022-12-24T10:40:37;8.32;;;2.00;;
71955;SDS011;59829;50.562;6.258;2022-12-24T10:50:42;8.32;;;1.83;;
71955;SDS011;59829;50.562;6.258;2022-12-24T11:00:52;5.50;;;1.40;;
71955;SDS011;59829;50.562;6.258;2022-12-24T11:11:00;8.25;;;1.77;;
71955;SDS011;59829;50.562;6.258;2022-12-24T11:21:05;5.57;;;1.48;;
71955;SDS011;59829;50.562;6.258;2022-12-24T11:31:19;5.25;;;1.52;;
71955;SDS011;59829;50.562;6.258;2022-12-24T11:41:21;7.28;;;1.45;;
71955;SDS011;59829;50.562;6.258;2022-12-24T11:51:24;5.97;;;1.75;;
71955;SDS011;59829;50.562;6.258;2022-12-24T12:12:04;8.20;;;2.03;;
71955;SDS011;59829;50.562;6.258;2022-12-24T12:22:21;3.60;;;1.13;;
71955;SDS011;59829;50.562;6.258;2022-12-24T12:32:34;3.72;;;1.20;;
71955;SDS011;59829;50.562;6.258;2022-12-24T12:42:47;3.55;;;1.00;;
71955;SDS011;59829;50.562;6.258;2022-12-24T13:03:23;6.53;;;1.48;;
71955;SDS011;59829;50.562;6.258;2022-12-24T13:24:24;5.13;;;1.40;;
71955;SDS011;59829;50.562;6.258;2022-12-24T13:44:32;2.22;;;0.60;;
71955;SDS011;59829;50.562;6.258;2022-12-24T13:54:33;3.03;;;0.90;;
71955;SDS011;59829;50.562;6.258;2022-12-24T14:04:36;3.53;;;0.90;;
71955;SDS011;59829;50.562;6.258;2022-12-24T14:14:41;6.32;;;1.95;;
71955;SDS011;59829;50.562;6.258;2022-12-24T14:24:41;2.75;;;1.40;;
71955;SDS011;59829;50.562;6.258;2022-12-24T14:34:45;2.15;;;0.80;;
71955;SDS011;59829;50.562;6.258;2022-12-24T14:55:42;3.42;;;0.98;;
71955;SDS011;59829;50.562;6.258;2022-12-24T15:05:44;2.10;;;0.90;;
71955;SDS011;59829;50.562;6.258;2022-12-24T15:15:50;0.95;;;0.43;;
71955;SDS011;59829;50.562;6.258;2022-12-24T15:36:14;1.90;;;0.43;;
71955;SDS011;59829;50.562;6.258;2022-12-24T15:46:23;0.63;;;0.20;;
71955;SDS011;59829;50.562;6.258;2022-12-24T15:56:27;1.33;;;0.63;;
71955;SDS011;59829;50.562;6.258;2022-12-24T16:16:58;1.70;;;0.50;;
71955;SDS011;59829;50.562;6.258;2022-12-24T16:26:58;0.30;;;0.10;;
71955;SDS011;59829;50.562;6.258;2022-12-24T16:36:58;1.10;;;0.30;;
71955;SDS011;59829;50.562;6.258;2022-12-24T16:46:59;0.40;;;0.30;;
71955;SDS011;59829;50.562;6.258;2022-12-24T16:56:59;0.82;;;0.22;;
71955;SDS011;59829;50.562;6.258;2022-12-24T17:07:00;1.25;;;0.50;;
71955;SDS011;59829;50.562;6.258;2022-12-24T17:17:00;3.85;;;1.50;;
71955;SDS011;59829;50.562;6.258;2022-12-24T17:27:00;4.72;;;1.80;;
71955;SDS011;59829;50.562;6.258;2022-12-24T17:37:01;2.63;;;1.08;;
71955;SDS011;59829;50.562;6.258;2022-12-24T17:47:01;1.48;;;0.80;;
71955;SDS011;59829;50.562;6.258;2022-12-24T17:57:04;0.90;;;0.53;;
71955;SDS011;59829;50.562;6.258;2022-12-24T18:07:04;0.73;;;0.38;;
71955;SDS011;59829;50.562;6.258;2022-12-24T18:17:04;0.77;;;0.40;;
71955;SDS011;59829;50.562;6.258;2022-12-24T18:27:05;0.65;;;0.20;;
71955;SDS011;59829;50.562;6.258;2022-12-24T18:37:05;0.40;;;0.30;;
71955;SDS011;59829;50.562;6.258;2022-12-24T18:47:05;0.80;;;0.40;;
71955;SDS011;59829;50.562;6.258;2022-12-24T18:57:06;1.70;;;0.60;;
71955;SDS011;59829;50.562;6.258;2022-12-24T19:07:06;0.98;;;0.30;;
71955;SDS011;59829;50.562;6.258;2022-12-24T19:17:06;1.90;;;0.60;;
71955;SDS011;59829;50.562;6.258;2022-12-24T19:27:07;1.05;;;0.65;;
71955;SDS011;59829;50.562;6.258;2022-12-24T19:37:07;0.90;;;0.55;;
71955;SDS011;59829;50.562;6.258;2022-12-24T19:47:07;1.73;;;0.75;;
71955;SDS011;59829;50.562;6.258;2022-12-24T19:57:08;1.17;;;0.50;;
71955;SDS011;59829;50.562;6.258;2022-12-24T20:07:08;2.08;;;0.88;;
71955;SDS011;59829;50.562;6.258;2022-12-24T20:17:09;1.58;;;0.80;;
71955;SDS011;59829;50.562;6.258;2022-12-24T20:27:09;1.60;;;0.90;;
71955;SDS011;59829;50.562;6.258;2022-12-24T20:37:10;1.77;;;0.85;;
71955;SDS011;59829;50.562;6.258;2022-12-24T20:47:10;1.85;;;0.70;;
71955;SDS011;59829;50.562;6.258;2022-12-24T20:57:11;1.80;;;0.60;;
71955;SDS011;59829;50.562;6.258;2022-12-24T21:07:12;6.10;;;2.42;;
71955;SDS011;59829;50.562;6.258;2022-12-24T21:17:13;3.92;;;1.70;;
71955;SDS011;59829;50.562;6.258;2022-12-24T21:27:13;2.42;;;1.02;;
71955;SDS011;59829;50.562;6.258;2022-12-24T21:37:14;1.05;;;0.50;;
71955;SDS011;59829;50.562;6.258;2022-12-24T21:47:15;1.15;;;0.68;;
71955;SDS011;59829;50.562;6.258;2022-12-24T21:57:15;1.52;;;0.60;;
71955;SDS011;59829;50.562;6.258;2022-12-24T22:07:34;0.75;;;0.60;;
71955;SDS011;59829;50.562;6.258;2022-12-24T22:17:53;0.70;;;0.38;;
71955;SDS011;59829;50.562;6.258;2022-12-24T22:27:53;0.73;;;0.47;;
71955;SDS011;59829;50.562;6.258;2022-12-24T22:37:54;0.98;;;0.30;;
71955;SDS011;59829;50.562;6.258;2022-12-24T22:47:54;0.88;;;0.40;;
71955;SDS011;59829;50.562;6.258;2022-12-24T22:57:54;0.68;;;0.30;;
71955;SDS011;59829;50.562;6.258;2022-12-24T23:07:55;0.47;;;0.30;;
71955;SDS011;59829;50.562;6.258;2022-12-24T23:17:55;0.20;;;0.20;;
71955;SDS011;59829;50.562;6.258;2022-12-24T23:27:55;1.40;;;0.47;;
71955;SDS011;59829;50.562;6.258;2022-12-24T23:37:56;0.40;;;0.30;;
71955;SDS011;59829;50.562;6.258;2022-12-24T23:47:56;0.63;;;0.30;;
71955;SDS011;59829;50.562;6.258;2022-12-24T23:57:56;0.73;;;0.40;;
